Weather observations for the past three days for
Sacramento Mather Airport
Imperial (Metric)
Date Time (pdt) Wind (mph) Vis. (mi.) Weather Sky Cond. Temperature (ºF) Relative Humidity Wind Chill (°F) Heat Index (°F) Pressure Precipitation (in)
Air Dwpt 6 hour altimeter (in) sea level (mb) 1 hr 3 hr 6 hr
Max. Min.
07 14:15 W 6 10.00 Fair CLR 80.6 60.8 51% 81 30 0.0
07 13:55 SW 6 10.00 Fair CLR 78.8 60.8 54% 80 30.01 0.0
07 13:35 Calm 9.00 Fair CLR 78.8 59 51% 80 30.02 0.0
07 13:15 Calm 10.00 Fair CLR 77 60.8 57% 79 30.02 0.0
07 12:55 Vrbl 5 10.00 Fair CLR 77 60.8 57% 79 30.03 0.0
07 12:35 Vrbl 5 10.00 Fair CLR 75.2 60.8 61% 77 30.04 0.0
07 12:15 W 6 10.00 Fair CLR 73.4 60.8 65% 30.05 0.0
07 11:55 Calm 10.00 Fair CLR 71.6 60.8 69% 30.05 0.0
07 11:35 W 8 10.00 Fair CLR 71.6 60.8 69% 30.06 0.0
07 11:15 W 6 10.00 Fair CLR 71.6 62.6 73% 30.06 0.0
07 10:55 W 7 10.00 Fair CLR 69.8 62.6 78% 30.06 0.0
07 10:35 W 5 10.00 Fair CLR 68 62.6 83% 30.06 0.0
07 10:15 Calm 10.00 Fair CLR 68 62.6 83% 30.06 0.0
07 09:55 Vrbl 5 10.00 Fair CLR 64.4 62.6 94% 30.07 0.0
07 09:35 S 3 9.00 Fair CLR 62.6 62.6 100% 30.07 0.0
07 09:15 Calm 10.00 Fair CLR 62.6 62.6 100% 30.07 0.0
07 08:55 Calm 10.00 Partly Cloudy SCT005 60.8 60.8 100% 30.07 0.0
07 08:35 S 6 6.00 Fog/Mist OVC004 59 59 100% 30.08 0.0
07 08:15 Vrbl 5 5.00 Fog/Mist OVC004 57.2 57.2 100% 30.07 0.0
07 07:55 SW 5 4.00 Overcast with Haze OVC004 0 0 0% 30.07 0.0
07 07:30 SW 6 4.00 Fog/Mist BKN003 57.2 57.2 100% 30.07 0.0
07 07:15 SW 9 5.00 Fog/Mist SCT004 57.2 57.2 100% 30.07 0.0
07 06:55 SW 8 7.00 Fair CLR 55.4 55.4 100% 30.06 0.0
07 06:35 S 6 7.00 Fair CLR 55.4 55.4 100% 30.06 0.0
07 06:15 S 7 7.00 Fair CLR 53.6 53.6 100% 30.05 0.0
07 05:55 S 7 6.00 Fog/Mist CLR 53.6 53.6 100% 30.05 0.0
07 05:35 SE 5 7.00 Fair CLR 53.6 53.6 100% 30.05 0.0
07 05:15 SE 5 9.00 Fair CLR 53.6 53.6 100% 30.05 0.0
07 04:55 S 3 10.00 Fair CLR 53.6 53.6 100% 30.04 0.0
07 04:35 S 3 10.00 Fair CLR 53.6 53.6 100% 30.05 0.0
07 04:15 S 3 10.00 Fair CLR 55.4 55.4 100% 30.05 0.0
07 03:35 S 6 10.00 Fair CLR 55.4 55.4 100% 30.04 0.0
07 03:10 S 6 10.00 Fair CLR 55.4 55.4 100% 30.04 0.0
07 02:55 S 7 10.00 Fair CLR 55.4 55.4 100% 30.04 0.0
07 02:35 S 6 10.00 Fair CLR 55.4 55.4 100% 30.04 0.0
07 02:15 S 6 10.00 Fair CLR 55.4 55.4 100% 30.05 0.0
07 01:55 S 6 10.00 Fair CLR 55.4 55.4 100% 30.05 0.0
07 01:35 SE 7 10.00 Fair CLR 55.4 55.4 100% 30.05 0.0
07 01:15 SE 6 10.00 Fair CLR 55.4 55.4 100% 30.05 0.0
07 00:55 SE 5 10.00 Fair CLR 55.4 55.4 100% 30.05 0.0
07 00:35 SE 6 10.00 Fair CLR 57.2 57.2 100% 30.05 0.0
07 00:15 S 5 10.00 Fair CLR 57.2 57.2 100% 30.05 0.0
06 23:55 S 6 10.00 Fair CLR 57.2 57.2 100% 30.05 0.0
06 23:35 SE 6 10.00 Fair CLR 59 59 100% 30.04 0.0
06 23:15 SE 6 10.00 Fair CLR 59 59 100% 30.04 0.0
06 22:55 S 3 10.00 Fair CLR 60.8 60.8 100% 30.04 0.0
06 22:35 S 3 10.00 Fair CLR 62.6 62.6 100% 30.04 0.0
06 22:15 S 3 10.00 Fair CLR 62.6 62.6 100% 30.04 0.0
06 21:55 SW 5 10.00 Fair CLR 62.6 62.6 100% 30.04 0.0
06 21:35 SW 7 10.00 Fair CLR 64.4 64.4 100% 30.03 0.0
06 21:15 SW 9 10.00 Fair CLR 64.4 64.4 100% 30.03 0.0
06 20:55 SW 6 10.00 Fair CLR 66.2 64.4 94% 30.02 0.0
06 20:35 S 5 10.00 Fair CLR 66.2 60.8 83% 30.01 0.0
06 20:15 S 5 10.00 Fair CLR 69.8 59 69% 30.01 0.0
06 19:55 Calm 10.00 Fair CLR 69.8 60.8 73% 30.01 0.0
06 19:30 Calm 10.00 Fair CLR 73.4 59 61% 30 0.0
06 18:55 Calm 10.00 Fair CLR 75.2 59 57% 78 30.01 0.0
06 18:35 Calm 10.00 Fair CLR 75.2 57.2 54% 78 30.01 0.0
06 18:15 NE 5 10.00 Fair CLR 75.2 57.2 54% 78 30.01 0.0
06 17:55 Vrbl 5 10.00 Fair CLR 75.2 57.2 54% 78 30.01 0.0
06 17:35 Vrbl 5 10.00 Fair CLR 77 59 54% 79 30.01 0.0
06 17:15 N 9 10.00 Fair CLR 75.2 59 57% 78 30.01 0.0
06 16:55 W 6 10.00 Fair CLR 75.2 57.2 54% 78 30.01 0.0
06 16:35 NW 8 10.00 Fair CLR 75.2 57.2 54% 78 30.02 0.0
06 16:15 Vrbl 5 G 13 10.00 Fair CLR 75.2 57.2 54% 78 30.02 0.0
06 15:55 Vrbl 6 10.00 Fair CLR 75.2 57.2 54% 78 30.03 0.0
06 15:35 Vrbl 5 G 14 10.00 Fair CLR 75.2 57.2 54% 78 30.04 0.0
06 15:15 Vrbl 7 G 13 10.00 Fair CLR 75.2 57.2 54% 78 30.05 0.0
06 14:55 NW 9 10.00 A Few Clouds FEW042 75.2 57.2 54% 78 30.06 0.0
06 14:35 N 8 10.00 A Few Clouds FEW042 73.4 57.2 57% 30.07 0.0
06 14:15 Vrbl 3 10.00 Partly Cloudy SCT039 73.4 57.2 57% 30.07 0.0
06 13:55 N 7 10.00 Mostly Cloudy BKN039 71.6 57.2 61% 30.08 0.0
06 13:35 W 8 10.00 Overcast OVC039 71.6 57.2 61% 30.09 0.0
06 13:15 W 6 10.00 Overcast OVC038 71.6 57.2 61% 30.09 0.0
06 12:55 NW 3 10.00 Overcast OVC038 71.6 57.2 61% 30.1 0.0
06 12:35 Vrbl 7 10.00 Overcast BKN036 OVC043 69.8 57.2 64% 30.1 0.0
06 12:15 Vrbl 3 10.00 Overcast OVC043 69.8 57.2 64% 30.11 0.0
06 11:55 Calm 10.00 Overcast OVC043 68 57.2 69% 30.12 0.0
06 11:35 Calm 10.00 Overcast OVC043 68 57.2 69% 30.12 0.0
06 11:15 NW 5 10.00 Overcast OVC043 68 57.2 69% 30.12 0.0
06 10:55 Calm 10.00 Overcast OVC043 64.4 57.2 78% 30.12 0.0
06 10:30 Calm 10.00 Overcast OVC043 64.4 57.2 78% 30.12 0.0
06 10:15 Calm 10.00 Overcast OVC043 64.4 59 83% 30.12 0.0
06 09:55 Calm 10.00 Overcast OVC043 62.6 59 88% 30.12 0.0
06 09:35 Calm 10.00 Overcast OVC044 60.8 59 94% 30.12 0.0
06 09:15 SW 3 10.00 Overcast OVC044 60.8 59 94% 30.12 0.0
06 08:55 Calm 9.00 Overcast OVC044 60.8 59 94% 30.12 0.0
06 08:35 Calm 10.00 Overcast OVC044 59 59 100% 30.12 0.0
06 08:15 S 5 10.00 Overcast OVC045 59 59 100% 30.12 0.0
06 07:55 Calm 10.00 Overcast OVC045 59 59 100% 30.12 0.0
06 07:30 S 6 10.00 Overcast OVC046 59 59 100% 30.12 0.0
06 07:15 S 5 10.00 Overcast OVC047 57.2 57.2 100% 30.11 0.0
06 06:55 SE 6 10.00 Overcast OVC047 57.2 57.2 100% 30.1 0.0
06 06:35 S 5 10.00 Overcast OVC048 57.2 57.2 100% 30.1 0.0
06 06:15 SE 5 10.00 Overcast OVC049 57.2 57.2 100% 30.1 0.0
06 05:55 SE 5 10.00 Overcast OVC049 57.2 57.2 100% 30.1 0.0
06 05:35 SE 6 10.00 Overcast OVC050 57.2 57.2 100% 30.09 0.0
06 05:15 SE 5 10.00 Overcast OVC050 57.2 57.2 100% 30.09 0.0
06 04:55 SE 6 10.00 Overcast OVC050 57.2 57.2 100% 30.09 0.0
06 04:30 SE 5 10.00 Overcast OVC050 57.2 57.2 100% 30.08 0.0
06 04:15 SE 6 10.00 Overcast OVC050 57.2 57.2 100% 30.08 0.0
06 03:55 SE 6 10.00 Overcast OVC050 57.2 57.2 100% 30.08 0.0
06 03:35 SE 7 10.00 Overcast OVC049 0 0 0% 30.07 0.0
06 03:15 SE 5 10.00 Overcast OVC048 57.2 57.2 100% 30.06 0.0
06 02:55 SE 3 10.00 Overcast OVC048 57.2 57.2 100% 30.06 0.0
06 02:35 SE 5 10.00 Overcast OVC049 57.2 57.2 100% 30.06 0.0
06 02:15 SE 3 10.00 Overcast OVC050 57.2 57.2 100% 30.07 0.0
06 01:55 SE 5 10.00 Overcast OVC050 57.2 57.2 100% 30.06 0.0
06 01:35 SE 5 10.00 Overcast BKN050 OVC055 59 59 100% 30.07 0.0
06 01:15 Calm 10.00 Overcast BKN050 OVC055 59 59 100% 30.07 0.0
06 00:55 S 3 10.00 Overcast OVC050 59 59 100% 30.06 0.0
06 00:35 S 5 10.00 Overcast OVC050 59 59 100% 30.06 0.0
06 00:15 SW 5 10.00 Overcast OVC050 59 59 100% 30.05 0.0
05 23:55 SW 7 10.00 Overcast OVC049 59 57.2 94% 30.05 0.0
05 23:35 SW 6 10.00 Overcast OVC048 60.8 59 94% 30.04 0.0
05 23:15 SW 5 6.00 Light Rain OVC049 60.8 59 94% 30.04 0.0
05 22:55 SW 6 9.00 Overcast OVC049 60.8 59 94% 30.03 0.0
05 22:30 SW 6 7.00 Light Rain OVC049 60.8 59 94% 30.03 0.0
05 22:15 SW 6 G 13 10.00 Overcast OVC050 60.8 59 94% 30.02 0.0
05 21:55 SW 7 10.00 Overcast OVC050 60.8 59 94% 30.02 0.0
05 21:35 SW 7 10.00 Overcast FEW025 OVC050 60.8 59 94% 30.01 0.0
05 21:15 SW 10 G 16 9.00 Overcast SCT025 OVC049 62.6 59 88% 30 0.0
05 20:55 S 6 10.00 Overcast FEW032 FEW038 OVC048 62.6 62.6 100% 30 0.0
05 20:35 S 5 10.00 Overcast SCT033 OVC047 62.6 60.8 94% 29.99 0.0
05 20:15 S 6 10.00 Overcast BKN033 OVC049 64.4 60.8 88% 29.98 0.0
05 19:55 SE 5 10.00 Overcast BKN031 OVC038 62.6 62.6 100% 29.98 0.0
05 19:35 SE 7 10.00 Overcast SCT029 OVC047 64.4 60.8 88% 29.97 0.0
05 19:15 SE 7 10.00 Overcast OVC046 0 0 0% 29.96 0.0
05 18:55 SE 8 10.00 Overcast OVC045 64.4 59 83% 29.96 0.0
05 18:35 SE 7 10.00 Overcast OVC044 64.4 59 83% 29.96 0.0
05 18:15 SE 8 10.00 Overcast OVC040 64.4 59 83% 29.96 0.0
05 17:50 SE 8 10.00 Overcast OVC036 66.2 59 78% 29.95 0.0
05 17:35 SE 8 10.00 Overcast OVC038 66.2 59 78% 29.95 0.0
05 17:15 S 9 10.00 Overcast OVC038 66.2 57.2 73% 29.95 0.0
05 16:55 S 7 10.00 Overcast OVC038 68 55.4 64% 29.94 0.0
05 16:35 Calm 10.00 Mostly Cloudy SCT040 BKN055 71.6 53.6 53% 29.94 0.0
05 16:15 Calm 10.00 Mostly Cloudy BKN037 BKN050 0 0 0% 29.94 0.0
05 15:55 SW 5 10.00 Mostly Cloudy BKN036 BKN050 68 55.4 64% 29.95 0.0
05 15:35 Calm 10.00 Mostly Cloudy BKN037 BKN047 68 55.4 64% 29.95 0.0
05 15:15 Vrbl 6 10.00 Partly Cloudy SCT038 68 57.2 69% 29.96 0.0
05 14:50 S 5 G 12 10.00 Overcast FEW030 OVC039 66.2 57.2 73% 29.96 0.0
05 14:35 Calm 10.00 Overcast FEW030 OVC041 64.4 55.4 73% 29.97 0.0
05 14:15 Calm 10.00 Overcast OVC039 66.2 55.4 68% 29.97 0.0
05 13:55 Calm 10.00 Overcast SCT026 OVC038 64.4 55.4 73% 29.97 0.0
05 13:35 Vrbl 3 10.00 Overcast OVC036 64.4 57.2 78% 29.97 0.0
05 13:15 Calm 10.00 Overcast OVC034 64.4 57.2 78% 29.97 0.0
05 12:55 Vrbl 5 10.00 Overcast OVC032 62.6 59 88% 29.98 0.0
05 12:35 Calm 6.00 Overcast with Haze FEW020 SCT026 OVC033 62.6 57.2 83% 29.98 0.0
05 12:15 Vrbl 3 7.00 Overcast BKN019 OVC025 0 0 0% 29.98 0.0
05 11:50 Calm 10.00 Overcast BKN021 OVC026 60.8 59 94% 29.98 0.0
05 11:35 Calm 10.00 Overcast BKN019 OVC023 60.8 59 94% 29.97 0.0
05 11:15 Vrbl 3 10.00 Overcast BKN020 OVC055 60.8 59 94% 29.97 0.0
05 10:55 Calm 10.00 Overcast OVC018 60.8 59 94% 29.97 0.0
05 10:35 S 5 10.00 Overcast OVC016 59 59 100% 29.97 0.0
05 10:15 Vrbl 5 10.00 Overcast BKN013 BKN020 OVC060 59 59 100% 29.97 0.0
05 09:55 SE 6 10.00 Overcast BKN012 OVC055 59 59 100% 29.97 0.0
05 09:35 S 7 10.00 Overcast BKN013 OVC050 57.2 57.2 100% 29.97 0.0
05 09:15 S 6 10.00 Overcast OVC012 57.2 57.2 100% 29.97 0.0
05 08:50 SE 7 10.00 Overcast OVC012 55.4 55.4 100% 29.96 0.0
05 08:35 SE 6 10.00 Overcast OVC012 55.4 55.4 100% 29.96 0.0
05 08:15 SE 7 10.00 Overcast BKN008 OVC013 55.4 55.4 100% 29.96 0.0
05 07:55 SE 8 10.00 Overcast FEW007 OVC012 55.4 55.4 100% 29.95 0.0
05 07:15 SE 7 10.00 Overcast OVC012 53.6 53.6 100% 29.94 0.0
05 06:55 SE 8 9.00 Overcast OVC011 53.6 53.6 100% 29.94 0.0
05 06:35 SE 6 9.00 Overcast OVC010 53.6 53.6 100% 29.93 0.0
05 06:15 SE 7 7.00 Overcast OVC009 53.6 53.6 100% 29.93 0.0
05 05:50 SE 6 9.00 Overcast OVC009 53.6 53.6 100% 29.93 0.0
05 05:35 SE 6 9.00 Overcast OVC009 53.6 53.6 100% 29.93 0.0
05 05:15 SE 7 8.00 Overcast OVC008 53.6 53.6 100% 29.93 0.0
05 04:55 SE 5 10.00 Overcast OVC008 0 0 0% 29.93 0.0
05 04:35 SE 6 10.00 Overcast OVC006 53.6 53.6 100% 29.93 0.0
05 04:15 SE 6 10.00 Overcast SCT007 SCT013 OVC048 0 0 0% 29.93 0.0
05 03:55 S 6 10.00 Overcast FEW013 BKN047 OVC050 53.6 53.6 100% 29.93 0.0
05 03:35 SE 6 10.00 Overcast OVC050 53.6 53.6 100% 29.94 0.0
05 03:15 S 7 10.00 Overcast OVC055 53.6 53.6 100% 29.93 0.0
05 02:50 S 5 10.00 Overcast OVC055 53.6 53.6 100% 29.94 0.0
05 02:35 SE 5 10.00 Overcast OVC055 53.6 53.6 100% 29.94 0.0
05 02:15 S 6 10.00 Overcast FEW005 OVC060 53.6 53.6 100% 29.95 0.0
05 01:55 S 5 10.00 Overcast BKN004 BKN009 OVC060 53.6 53.6 100% 29.95 0.0 0.02
05 01:35 S 5 10.00 Overcast SCT004 OVC060 53.6 53.6 100% 29.96 0.0
05 00:55 S 5 4.00 Light Rain FEW003 BKN060 OVC085 53.6 53.6 100% 29.96 0.0 0.04
05 00:35 S 3 3.00 Light Rain FEW037 SCT050 OVC060 53.6 53.6 100% 29.96 0.0
05 00:15 Calm 10.00 Overcast BKN050 OVC060 53.6 53.6 100% 29.96 0.0
04 23:55 Calm 8.00 Light Rain BKN055 OVC075 53.6 53.6 100% 29.96 0.0 0.11
04 23:35 SE 7 5.00 Light Rain BKN050 OVC060 53.6 53.6 100% 29.96 0.0
04 23:15 E 3 3.00 Rain FEW038 BKN050 OVC080 53.6 53.6 100% 29.96 0.0
04 22:55 Calm 5.00 Light Rain FEW036 SCT045 BKN060 55.4 55.4 100% 29.96 0.0 0.05
04 22:35 Calm 5.00 Light Rain FEW041 SCT049 BKN065 55.4 55.4 100% 29.96 0.0
04 21:55 SE 5 7.00 Light Rain SCT038 SCT065 OVC090 53.6 53.6 100% 29.96 0.0 0.1
04 21:35 Calm 5.00 Rain OVC038 55.4 55.4 100% 29.96 0.0
04 21:15 Calm 4.00 Rain SCT037 BKN049 BKN065 55.4 55.4 100% 29.96 0.0
04 20:55 Calm 5.00 Light Rain FEW044 SCT050 BKN080 55.4 55.4 100% 29.96 0.0 0.12
04 20:35 Calm 5.00 Rain FEW047 SCT055 BKN070 55.4 55.4 100% 29.96 0.0
04 20:15 NE 6 G 12 8.00 Light Rain FEW060 BKN070 BKN080 55.4 55.4 100% 29.96 0.0
04 19:55 Calm 4.00 Light Rain FEW025 FEW038 BKN080 55.4 55.4 100% 29.95 0.0 0.02
04 19:35 E 5 9.00 Light Rain BKN025 BKN038 OVC050 55.4 55.4 100% 29.94 0.0
04 19:15 E 6 10.00 Light Rain SCT024 BKN050 OVC080 55.4 55.4 100% 29.94 0.0
04 18:55 E 5 6.00 Light Rain FEW042 BKN080 55.4 55.4 100% 29.94 0.0 0.06
04 18:35 E 3 7.00 Light Rain BKN080 55.4 55.4 100% 29.94 0.0
04 18:10 E 5 5.00 Light Rain FEW039 SCT070 OVC080 57.2 57.2 100% 29.94 0.0
04 17:55 E 8 9.00 Light Rain BKN075 57.2 57.2 100% 29.95 0.0 0.02
04 17:35 E 7 8.00 Light Rain FEW055 BKN070 57.2 57.2 100% 29.95 0.0
04 17:15 E 7 9.00 Light Rain SCT055 BKN070 57.2 57.2 100% 29.95 0.0
04 16:55 E 7 6.00 Light Rain FEW047 FEW060 57.2 57.2 100% 29.95 0.0 0.05
04 16:35 E 5 6.00 Light Rain SCT060 SCT070 57.2 57.2 100% 29.95 0.0
04 16:15 E 7 8.00 Light Rain SCT060 BKN070 57.2 57.2 100% 29.95 0.0
04 15:55 E 6 8.00 Light Rain BKN060 BKN070 59 59 100% 29.96 0.0 0.03
04 15:35 E 8 8.00 Light Rain BKN060 BKN070 59 59 100% 29.96 0.0
04 15:15 E 7 6.00 Light Rain FEW050 SCT060 59 59 100% 29.96 0.0
04 14:55 E 5 7.00 Light Rain FEW065 SCT080 59 59 100% 29.96 0.0
04 14:35 SE 5 10.00 Light Rain FEW055 SCT065 SCT080 60.8 59 94% 29.97 0.0
Date Time (pdt) Wind (mph) Vis. (mi.) Weather Sky Cond. Air Dwpt Max. Min. Relative Humidity Wind Chill (°F) Heat Index (°F) altimeter (in) sea level (mb) 1 hr 3 hr 6 hr
6 hour
Temperature (ºF) Pressure Precipitation (in)